Elroy, WI (53929)

12:05 AM CST on March 02, 2015 (GMT -0600)
Kendall, Wi. | Change Station
CLOSE
Current Station
Personal Weather Station
Location: Kendall, WI
Elevation: 1021 ft
Nearby Weather Stations

Elev 1021 ft 43.79 °N, 90.37 °W | Updated 17 seconds ago

Clear
Clear
12.6 °F
Feels Like 7 °F
N
3.1
Wind Variable Wind from South
Gusts 3.1 mph

Today
High -- | Low -- °F
--% Chance of Precip.
Yesterday
High -- | Low -- °F
Precip. -- in
6:36 AM 5:50 PM
Waxing Gibbous, 89% visible
Pressure 30.37 in
Visibility 10.0 miles
Clouds Clear
Windchill 7 °F
Dew Point -1 °F
Humidity 55%
Rainfall 0.00 in
Snow Depth Not available.
UV 0 out of 12
Pollen .50 out of 12
Air Quality Not available.
Flu Activity Not available.
METAR KVOK 020558Z AUTO 25008KT 210V270 10SM CLR M09/M12 A3031 RMK AO2 SLP284 T10921116 11062 21092 410331148 52013

More Conditions Fewer Conditions

Pressure 30.37 in
Visibility 10.0 miles
Clouds Clear
Windchill 7 °F
Dew Point -1 °F
Humidity 55%
Rainfall 0.00 in
Snow Depth Not available.
UV 0 out of 12
Pollen .50 out of 12
Air Quality Not available.
Flu Activity Not available.
METAR KVOK 020558Z AUTO 25008KT 210V270 10SM CLR M09/M12 A3031 RMK AO2 SLP284 T10921116 11062 21092 410331148 52013

More Conditions Fewer Conditions

10-Day Weather Forecast

Almanac

Astronomy

Mar. 02, 2015 Rise Set
Actual Time
Civil Twilight
Nautical Twilight
Astronomical Twilight
Moon
Length of Visible Light
Length of Day
Tomorrow will be .
, % of the Moon is Illuminated

Today's Extremes

State Highs State Lows

Community

WunderPhotos

Upload Photos

1,801,738 photos uploaded!

WunderBlogs® & News

Nearby

Air Quality

  Air Quality AQ Index Pollutant
Not available.

Snow Depth

Station Depth Elevation

Earthquake Activity

City Distance Mag. Time & Date
Minimum magnitude displayed is 2.5.

Coastal Water Temperatures

Place Temperature

Nearby Weather Stations